createdAt,value
2023-02-11T00:00:15.722Z,17.83
2023-02-11T00:02:42.421Z,18.80
2023-02-11T00:05:09.220Z,16.50
2023-02-11T00:07:35.944Z,17.13
2023-02-11T00:10:03.008Z,19.17
2023-02-11T00:12:29.667Z,16.20
2023-02-11T00:14:56.359Z,17.87
2023-02-11T00:17:23.139Z,16.80
2023-02-11T00:19:52.862Z,16.80
2023-02-11T00:22:19.741Z,17.03
2023-02-11T00:24:46.508Z,19.13
2023-02-11T00:27:13.299Z,17.40
2023-02-11T00:29:40.133Z,17.10
2023-02-11T00:32:08.830Z,18.53
2023-02-11T00:34:36.447Z,18.57
2023-02-11T00:37:03.532Z,15.60
2023-02-11T00:39:30.467Z,17.33
2023-02-11T00:41:57.670Z,18.20
2023-02-11T00:44:24.333Z,14.20
2023-02-11T00:46:51.068Z,18.33
2023-02-11T00:49:18.104Z,17.10
2023-02-11T00:51:44.795Z,16.63
2023-02-11T00:54:11.489Z,18.23
2023-02-11T00:56:38.238Z,18.47
2023-02-11T00:59:04.965Z,16.13
2023-02-11T01:01:31.779Z,17.03
2023-02-11T01:03:58.467Z,18.40
2023-02-11T01:06:25.205Z,17.03
2023-02-11T01:08:51.873Z,17.77
2023-02-11T01:11:21.221Z,18.63
2023-02-11T01:13:49.477Z,16.70
2023-02-11T01:16:16.714Z,15.40
2023-02-11T01:18:44.321Z,16.10
2023-02-11T01:21:11.824Z,18.03
2023-02-11T01:23:38.523Z,15.67
2023-02-11T01:26:05.431Z,18.30
2023-02-11T01:28:32.713Z,16.83
2023-02-11T01:31:03.373Z,16.90
2023-02-11T01:33:30.145Z,17.57
2023-02-11T01:36:01.301Z,15.67
2023-02-11T01:38:27.951Z,16.87
2023-02-11T01:40:57.640Z,19.33
2023-02-11T01:43:25.612Z,16.53
2023-02-11T01:46:02.910Z,17.20
2023-02-11T01:48:38.407Z,17.50
2023-02-11T01:51:09.512Z,16.10
2023-02-11T01:53:55.754Z,15.17
2023-02-11T01:56:41.487Z,16.10
2023-02-11T01:59:13.562Z,16.33
2023-02-11T02:01:40.996Z,18.57
2023-02-11T02:04:09.881Z,18.60
2023-02-11T02:06:44.652Z,16.77
2023-02-11T02:09:33.245Z,15.93
2023-02-11T02:11:59.988Z,17.00
2023-02-11T02:14:26.663Z,16.20
2023-02-11T02:16:53.354Z,16.00
2023-02-11T02:19:45.616Z,15.33
2023-02-11T02:22:53.689Z,17.53
2023-02-11T02:25:27.086Z,15.87
2023-02-11T02:28:12.664Z,15.90
2023-02-11T02:31:00.354Z,15.90
2023-02-11T02:33:33.368Z,15.80
2023-02-11T02:36:22.794Z,16.57
2023-02-11T02:39:04.938Z,13.73
2023-02-11T02:41:33.809Z,14.87
2023-02-11T02:44:00.651Z,15.93
2023-02-11T02:46:30.650Z,13.10
2023-02-11T02:48:58.123Z,13.30
2023-02-11T02:51:49.576Z,16.07
2023-02-11T02:54:25.003Z,14.93
2023-02-11T02:56:55.935Z,16.27
2023-02-11T02:59:32.014Z,13.03
2023-02-11T03:02:25.638Z,14.83
2023-02-11T03:05:01.403Z,13.20
2023-02-11T03:07:31.107Z,15.17
2023-02-11T03:10:02.677Z,13.73
2023-02-11T03:12:31.834Z,15.37
2023-02-11T03:14:59.322Z,16.37
2023-02-11T03:17:26.700Z,15.90
2023-02-11T03:19:54.036Z,13.57
2023-02-11T03:22:25.837Z,13.03
2023-02-11T03:24:52.472Z,12.97
2023-02-11T03:27:40.802Z,14.43
2023-02-11T03:30:13.529Z,15.73
2023-02-11T03:32:51.665Z,13.13
2023-02-11T03:35:23.522Z,12.93
2023-02-11T03:37:55.021Z,13.93
2023-02-11T03:40:32.079Z,14.67
2023-02-11T03:43:03.373Z,12.33
2023-02-11T03:45:31.253Z,14.53
2023-02-11T03:48:04.565Z,14.00
2023-02-11T03:50:32.600Z,13.17
2023-02-11T03:53:01.604Z,12.63
2023-02-11T03:55:29.021Z,15.13
2023-02-11T03:57:56.303Z,12.23
2023-02-11T04:00:37.337Z,15.70
2023-02-11T04:03:04.598Z,12.47
2023-02-11T04:05:31.674Z,13.97
2023-02-11T04:07:58.382Z,13.50
2023-02-11T04:10:25.436Z,12.70
2023-02-11T04:12:52.147Z,13.57
2023-02-11T04:15:19.033Z,13.53
2023-02-11T04:17:45.698Z,11.63
2023-02-11T04:20:12.655Z,12.63
2023-02-11T04:22:39.305Z,11.87
2023-02-11T04:25:06.658Z,13.63
2023-02-11T04:27:33.425Z,11.80
2023-02-11T04:30:00.111Z,12.33
2023-02-11T04:32:26.894Z,13.43
2023-02-11T04:34:54.862Z,12.73
2023-02-11T04:37:21.513Z,11.57
2023-02-11T04:39:48.303Z,12.57
2023-02-11T04:42:14.956Z,13.13
2023-02-11T04:44:41.594Z,13.37
2023-02-11T04:47:08.653Z,10.57
2023-02-11T04:49:35.398Z,12.10
2023-02-11T04:52:02.053Z,10.87
2023-02-11T04:54:28.693Z,11.53
2023-02-11T04:56:55.392Z,10.80
2023-02-11T04:59:22.039Z,11.07
2023-02-11T05:01:49.556Z,11.47
2023-02-11T05:04:17.157Z,11.10
2023-02-11T05:06:43.949Z,9.87
2023-02-11T05:09:12.555Z,10.17
2023-02-11T05:11:41.989Z,10.50
2023-02-11T05:14:08.745Z,11.80
2023-02-11T05:16:35.877Z,11.03
2023-02-11T05:19:02.574Z,10.03
2023-02-11T05:21:29.529Z,10.47
2023-02-11T05:23:57.351Z,10.17
2023-02-11T05:26:23.994Z,12.50
2023-02-11T05:28:50.650Z,10.63
2023-02-11T05:31:17.386Z,10.43
2023-02-11T05:33:44.171Z,10.40
2023-02-11T05:36:12.414Z,9.97
2023-02-11T05:38:39.486Z,11.43
2023-02-11T05:41:06.845Z,10.67
2023-02-11T05:43:35.302Z,8.97
2023-02-11T05:46:02.515Z,9.17
2023-02-11T05:48:29.289Z,13.37
2023-02-11T05:50:55.942Z,11.17
2023-02-11T05:53:22.824Z,11.33
2023-02-11T05:55:49.966Z,13.00
2023-02-11T05:58:16.802Z,12.07
2023-02-11T06:00:43.693Z,11.20
2023-02-11T06:03:10.445Z,12.50
2023-02-11T06:05:37.930Z,11.63
2023-02-11T06:08:04.805Z,11.67
2023-02-11T06:10:31.465Z,13.07
2023-02-11T06:12:58.132Z,10.57
2023-02-11T06:15:24.976Z,11.67
2023-02-11T06:17:51.883Z,11.60
2023-02-11T06:20:18.610Z,10.97
2023-02-11T06:22:45.402Z,10.23
2023-02-11T06:25:12.499Z,11.87
2023-02-11T06:27:39.695Z,10.23
2023-02-11T06:30:07.813Z,11.60
2023-02-11T06:32:49.819Z,11.03
2023-02-11T06:35:16.674Z,11.03
2023-02-11T06:37:43.502Z,10.80
2023-02-11T06:40:11.248Z,12.70
2023-02-11T06:42:39.221Z,11.13
2023-02-11T06:45:09.053Z,12.00
2023-02-11T06:47:35.729Z,12.30
2023-02-11T06:50:02.406Z,13.17
2023-02-11T06:52:29.072Z,11.03
2023-02-11T06:54:55.717Z,12.00
2023-02-11T06:57:22.388Z,11.77
2023-02-11T06:59:49.152Z,10.63
2023-02-11T07:02:16.086Z,10.90
2023-02-11T07:04:43.398Z,11.63
2023-02-11T07:07:10.069Z,11.47
2023-02-11T07:09:36.774Z,13.60
2023-02-11T07:12:03.571Z,12.17
2023-02-11T07:14:30.238Z,13.10
2023-02-11T07:16:56.980Z,12.83
2023-02-11T07:19:23.641Z,10.80
2023-02-11T07:21:50.309Z,10.23
2023-02-11T07:24:17.205Z,12.23
2023-02-11T07:26:44.639Z,10.70
2023-02-11T07:29:11.331Z,11.50
2023-02-11T07:31:38.112Z,11.57
2023-02-11T07:34:04.815Z,11.27
2023-02-11T07:36:32.330Z,10.40
2023-02-11T07:39:00.174Z,11.67
2023-02-11T07:41:27.085Z,12.53
2023-02-11T07:43:54.301Z,11.17
2023-02-11T07:46:26.173Z,11.47
2023-02-11T07:48:53.317Z,13.20
2023-02-11T07:51:22.833Z,12.67
2023-02-11T07:53:49.747Z,12.70
2023-02-11T07:56:17.251Z,14.33
2023-02-11T07:58:43.965Z,10.47
2023-02-11T08:01:13.270Z,11.10
2023-02-11T08:03:41.275Z,14.57
2023-02-11T08:06:10.030Z,13.77
2023-02-11T08:08:36.971Z,12.20
2023-02-11T08:11:12.092Z,12.23
2023-02-11T08:13:39.057Z,13.57
2023-02-11T08:16:06.746Z,13.03
2023-02-11T08:18:34.132Z,12.60
2023-02-11T08:21:08.324Z,14.17
2023-02-11T08:23:39.318Z,13.60
2023-02-11T08:26:14.085Z,12.00
2023-02-11T08:28:42.573Z,13.77
2023-02-11T08:31:21.074Z,14.00
2023-02-11T08:33:48.037Z,13.47
2023-02-11T08:36:23.995Z,14.77
2023-02-11T08:38:50.911Z,15.23
2023-02-11T08:41:18.179Z,14.53
2023-02-11T08:43:45.692Z,12.20
2023-02-11T08:46:15.711Z,13.30
2023-02-11T08:48:42.857Z,14.77
2023-02-11T08:51:12.740Z,13.57
2023-02-11T08:53:39.399Z,13.47
2023-02-11T08:56:06.536Z,16.03
2023-02-11T08:58:33.584Z,16.27
2023-02-11T09:01:00.311Z,13.97
2023-02-11T09:03:27.174Z,15.17
2023-02-11T09:05:54.769Z,15.47
2023-02-11T09:08:21.603Z,15.00
2023-02-11T09:10:48.844Z,14.80
2023-02-11T09:13:16.905Z,16.87
2023-02-11T09:15:46.795Z,18.50
2023-02-11T09:18:14.081Z,15.27
2023-02-11T09:20:40.739Z,15.50
2023-02-11T09:23:07.454Z,14.53
2023-02-11T09:25:34.229Z,15.63
2023-02-11T09:28:01.060Z,16.07
2023-02-11T09:30:27.765Z,15.13
2023-02-11T09:32:54.427Z,15.60
2023-02-11T09:35:21.089Z,17.40
2023-02-11T09:37:47.738Z,16.00
2023-02-11T09:40:15.249Z,18.60
2023-02-11T09:43:00.954Z,15.03
2023-02-11T09:45:30.451Z,13.83
2023-02-11T09:47:59.912Z,15.03
2023-02-11T09:50:34.121Z,16.87
2023-02-11T09:53:07.217Z,16.57
2023-02-11T09:55:41.924Z,16.30
2023-02-11T09:58:13.538Z,14.07
2023-02-11T10:00:42.083Z,16.17
2023-02-11T10:03:35.146Z,15.77
2023-02-11T10:06:36.278Z,14.23
2023-02-11T10:09:24.958Z,16.07
2023-02-11T10:12:04.189Z,14.57
2023-02-11T10:15:13.805Z,14.00
2023-02-11T10:17:56.284Z,16.20
2023-02-11T10:20:37.341Z,16.90
2023-02-11T10:23:24.775Z,15.77
2023-02-11T10:25:56.674Z,19.80
2023-02-11T10:28:32.908Z,17.07
2023-02-11T10:30:59.723Z,17.27
2023-02-11T10:33:44.987Z,16.57
2023-02-11T10:36:13.090Z,18.37
2023-02-11T10:38:39.934Z,16.20
2023-02-11T10:41:09.675Z,15.20
2023-02-11T10:43:36.561Z,15.43
2023-02-11T10:46:05.103Z,14.70
2023-02-11T10:48:51.429Z,16.90
2023-02-11T10:51:22.244Z,14.73
2023-02-11T10:54:05.374Z,14.57
2023-02-11T10:56:35.956Z,12.47
2023-02-11T10:59:08.015Z,10.43
2023-02-11T11:01:50.175Z,10.00
2023-02-11T11:04:38.615Z,8.03
2023-02-11T11:07:23.031Z,8.17
2023-02-11T11:10:02.700Z,9.10
2023-02-11T11:12:35.119Z,7.77
2023-02-11T11:15:10.650Z,6.97
2023-02-11T11:17:38.449Z,7.63
2023-02-11T11:20:20.445Z,5.63
2023-02-11T11:22:49.084Z,5.87
2023-02-11T11:25:27.297Z,6.20
2023-02-11T11:27:57.362Z,5.70
2023-02-11T11:30:27.111Z,6.10
2023-02-11T11:32:53.985Z,5.97
2023-02-11T11:35:26.413Z,6.07
2023-02-11T11:37:58.394Z,6.90
2023-02-11T11:40:29.281Z,5.97
2023-02-11T11:43:13.211Z,6.63
2023-02-11T11:45:40.826Z,5.73
2023-02-11T11:48:33.207Z,6.50
2023-02-11T11:51:02.823Z,6.13
2023-02-11T11:53:52.044Z,5.10
2023-02-11T11:56:28.697Z,6.33
2023-02-11T11:58:55.456Z,7.50
2023-02-11T12:02:13.523Z,7.33
2023-02-11T12:04:54.767Z,6.27
2023-02-11T12:07:40.399Z,7.43
2023-02-11T12:10:27.512Z,7.23
2023-02-11T12:13:10.548Z,6.03
2023-02-11T12:16:04.604Z,6.27
2023-02-11T12:18:55.356Z,6.43
2023-02-11T12:21:43.447Z,6.97
2023-02-11T12:24:43.797Z,6.50
2023-02-11T12:27:46.711Z,6.40
2023-02-11T12:30:19.254Z,6.83
2023-02-11T12:32:58.489Z,7.73
2023-02-11T12:35:34.077Z,6.37
2023-02-11T12:38:18.687Z,7.23
2023-02-11T12:40:57.310Z,8.30
2023-02-11T12:43:26.504Z,6.70
2023-02-11T12:46:02.624Z,5.97
2023-02-11T12:48:35.891Z,6.20
2023-02-11T12:51:11.916Z,7.00
2023-02-11T12:54:06.914Z,7.67
2023-02-11T12:56:42.051Z,9.13
2023-02-11T12:59:25.271Z,8.07
2023-02-11T13:01:52.740Z,9.43
2023-02-11T13:04:29.294Z,9.40
2023-02-11T13:06:59.566Z,10.67
2023-02-11T13:09:36.876Z,10.63
2023-02-11T13:12:24.944Z,11.07
2023-02-11T13:14:54.260Z,13.47
2023-02-11T13:17:44.604Z,11.47
2023-02-11T13:20:33.209Z,14.03
2023-02-11T13:23:12.640Z,13.23
2023-02-11T13:25:59.611Z,10.80
2023-02-11T13:28:41.370Z,11.43
2023-02-11T13:31:09.386Z,11.97
2023-02-11T13:33:43.228Z,10.73
2023-02-11T13:36:11.233Z,10.53
2023-02-11T13:38:38.649Z,10.77
2023-02-11T13:41:24.728Z,11.00
2023-02-11T13:44:08.876Z,12.07
2023-02-11T13:46:54.126Z,11.40
2023-02-11T13:49:23.713Z,10.40
2023-02-11T13:51:50.988Z,10.17
2023-02-11T13:54:27.661Z,11.17
2023-02-11T13:57:16.236Z,11.30
2023-02-11T13:59:42.854Z,11.57
2023-02-11T14:03:07.268Z,11.13
2023-02-11T14:05:52.341Z,12.07
2023-02-11T14:08:39.992Z,10.50
2023-02-11T14:11:29.815Z,12.47
2023-02-11T14:14:16.513Z,9.97
2023-02-11T14:16:58.723Z,10.03
2023-02-11T14:19:38.695Z,10.93
2023-02-11T14:22:09.682Z,10.30
2023-02-11T14:24:36.280Z,10.60
2023-02-11T14:27:10.094Z,11.23
2023-02-11T14:29:45.525Z,9.27
2023-02-11T14:32:56.649Z,10.03
2023-02-11T14:35:37.133Z,9.50
2023-02-11T14:38:22.716Z,9.80
2023-02-11T14:41:07.558Z,11.97
2023-02-11T14:43:45.207Z,10.77
2023-02-11T14:46:11.915Z,11.37
2023-02-11T14:48:45.197Z,12.37
2023-02-11T14:51:18.554Z,11.83
2023-02-11T14:53:50.584Z,9.80
2023-02-11T14:56:31.062Z,13.83
2023-02-11T14:58:58.591Z,12.50
2023-02-11T15:01:40.552Z,13.40
2023-02-11T15:04:23.637Z,13.53
2023-02-11T15:06:50.586Z,11.27
2023-02-11T15:09:19.776Z,12.97
2023-02-11T15:11:48.209Z,11.30
2023-02-11T15:14:22.676Z,10.60
2023-02-11T15:16:50.717Z,10.43
2023-02-11T15:19:29.134Z,13.27
2023-02-11T15:21:56.879Z,10.20
2023-02-11T15:24:31.651Z,10.43
2023-02-11T15:27:16.061Z,10.10
2023-02-11T15:29:50.616Z,11.00
2023-02-11T15:32:22.971Z,11.43
2023-02-11T15:34:51.366Z,11.37
2023-02-11T15:37:26.777Z,10.27
2023-02-11T15:39:54.432Z,10.23
2023-02-11T15:42:26.700Z,9.57
2023-02-11T15:45:16.132Z,12.07
2023-02-11T15:47:54.708Z,11.00
2023-02-11T15:50:22.537Z,10.73
2023-02-11T15:52:49.926Z,10.83
2023-02-11T15:55:17.851Z,10.40
2023-02-11T15:58:00.123Z,9.80
2023-02-11T16:00:37.373Z,9.23
2023-02-11T16:03:04.536Z,10.13
2023-02-11T16:05:34.063Z,9.67
2023-02-11T16:08:12.316Z,9.47
2023-02-11T16:10:38.959Z,10.40
2023-02-11T16:13:08.584Z,9.40
2023-02-11T16:15:38.107Z,10.00
2023-02-11T16:18:36.803Z,9.90
2023-02-11T16:21:06.324Z,10.17
2023-02-11T16:23:36.029Z,9.10
2023-02-11T16:26:20.953Z,10.57
2023-02-11T16:28:47.814Z,10.37
2023-02-11T16:31:14.601Z,8.43
2023-02-11T16:33:41.269Z,9.07
2023-02-11T16:36:17.405Z,9.00
2023-02-11T16:38:44.097Z,9.20
2023-02-11T16:41:12.714Z,8.57
2023-02-11T16:43:40.466Z,8.90
2023-02-11T16:46:08.739Z,9.67
2023-02-11T16:48:35.429Z,9.67
2023-02-11T16:51:02.155Z,10.63
2023-02-11T16:53:28.795Z,9.87
2023-02-11T16:55:55.625Z,10.23
2023-02-11T16:58:22.329Z,10.00
2023-02-11T17:00:49.253Z,9.53
2023-02-11T17:03:23.568Z,9.97
2023-02-11T17:05:55.621Z,9.97
2023-02-11T17:08:22.538Z,10.53
2023-02-11T17:10:49.742Z,10.73
2023-02-11T17:13:16.635Z,9.83
2023-02-11T17:15:43.281Z,9.70
2023-02-11T17:18:13.458Z,9.90
2023-02-11T17:20:40.638Z,10.13
2023-02-11T17:23:07.437Z,10.50
2023-02-11T17:25:34.212Z,10.13
2023-02-11T17:28:00.872Z,9.70
2023-02-11T17:30:27.596Z,9.77
2023-02-11T17:32:54.261Z,9.73
2023-02-11T17:35:21.013Z,9.13
2023-02-11T17:37:47.758Z,10.23
2023-02-11T17:40:14.890Z,9.20
2023-02-11T17:42:41.642Z,9.07
2023-02-11T17:45:09.104Z,8.87
2023-02-11T17:47:36.039Z,9.17
2023-02-11T17:50:03.174Z,8.60
2023-02-11T17:52:30.006Z,8.80
2023-02-11T17:54:57.913Z,8.83
2023-02-11T17:57:24.571Z,9.70
2023-02-11T17:59:51.545Z,10.37
2023-02-11T18:02:18.852Z,9.30
2023-02-11T18:04:45.568Z,8.20
2023-02-11T18:07:12.407Z,9.10
2023-02-11T18:09:40.922Z,9.10
2023-02-11T18:12:08.753Z,8.90
2023-02-11T18:14:35.416Z,8.57
2023-02-11T18:17:02.165Z,8.50
2023-02-11T18:19:30.605Z,8.63
2023-02-11T18:22:00.835Z,8.40
2023-02-11T18:24:27.768Z,8.97
2023-02-11T18:26:54.530Z,7.67
2023-02-11T18:29:21.255Z,8.17
2023-02-11T18:31:48.026Z,9.33
2023-02-11T18:34:15.835Z,8.50
2023-02-11T18:36:42.609Z,8.00
2023-02-11T18:39:09.360Z,7.80
2023-02-11T18:41:36.107Z,8.30
2023-02-11T18:44:04.518Z,8.93
2023-02-11T18:46:31.409Z,8.20
2023-02-11T18:48:58.149Z,7.97
2023-02-11T18:51:25.552Z,9.10
2023-02-11T18:53:52.924Z,7.80
2023-02-11T18:56:21.837Z,8.60
2023-02-11T18:58:49.144Z,8.77
2023-02-11T19:01:22.797Z,8.43
2023-02-11T19:03:50.001Z,7.80
2023-02-11T19:06:19.783Z,7.73
2023-02-11T19:08:47.311Z,8.17
2023-02-11T19:11:16.626Z,8.57
2023-02-11T19:13:43.263Z,7.83
2023-02-11T19:16:16.705Z,7.93
2023-02-11T19:18:43.486Z,8.03
2023-02-11T19:21:11.473Z,8.70
2023-02-11T19:23:38.295Z,7.93
2023-02-11T19:26:06.340Z,8.20
2023-02-11T19:28:34.017Z,9.37
2023-02-11T19:31:10.027Z,8.83
2023-02-11T19:33:37.002Z,8.47
2023-02-11T19:36:05.706Z,8.90
2023-02-11T19:38:32.426Z,9.10
2023-02-11T19:40:59.293Z,8.50
2023-02-11T19:43:25.962Z,8.83
2023-02-11T19:45:56.179Z,8.90
2023-02-11T19:48:23.898Z,8.50
2023-02-11T19:50:50.664Z,8.90
2023-02-11T19:53:17.404Z,8.83
2023-02-11T19:55:44.090Z,7.73
2023-02-11T19:58:10.750Z,10.00
2023-02-11T20:00:37.502Z,9.80
2023-02-11T20:03:04.188Z,9.43
2023-02-11T20:05:31.424Z,9.07
2023-02-11T20:07:58.110Z,9.30
2023-02-11T20:10:25.344Z,10.10
2023-02-11T20:12:52.077Z,9.37
2023-02-11T20:15:18.777Z,10.57
2023-02-11T20:17:45.509Z,9.10
2023-02-11T20:20:12.884Z,9.27
2023-02-11T20:22:39.565Z,9.60
2023-02-11T20:25:06.586Z,9.50
2023-02-11T20:27:33.490Z,10.70
2023-02-11T20:30:00.163Z,10.60
2023-02-11T20:32:26.822Z,9.20
2023-02-11T20:34:53.506Z,8.83
2023-02-11T20:37:20.520Z,8.83
2023-02-11T20:39:47.330Z,11.07
2023-02-11T20:42:15.167Z,9.30
2023-02-11T20:44:41.897Z,9.83
2023-02-11T20:47:08.679Z,9.50
2023-02-11T20:49:35.345Z,9.57
2023-02-11T20:52:01.998Z,9.13
2023-02-11T20:54:28.663Z,8.93
2023-02-11T20:56:56.855Z,9.00
2023-02-11T20:59:24.029Z,9.30
2023-02-11T21:01:56.044Z,8.87
2023-02-11T21:04:25.536Z,10.27
2023-02-11T21:06:55.861Z,10.10
2023-02-11T21:09:25.346Z,8.83
2023-02-11T21:11:53.058Z,9.13
2023-02-11T21:14:20.690Z,9.37
2023-02-11T21:16:48.354Z,8.63
2023-02-11T21:19:16.068Z,8.93
2023-02-11T21:21:43.260Z,10.23
2023-02-11T21:24:10.732Z,9.47
2023-02-11T21:26:37.738Z,9.60
2023-02-11T21:29:05.833Z,10.03
2023-02-11T21:31:33.732Z,9.30
2023-02-11T21:34:00.706Z,9.93
2023-02-11T21:36:28.697Z,10.27
2023-02-11T21:38:55.337Z,9.83
2023-02-11T21:41:22.655Z,9.97
2023-02-11T21:43:49.898Z,10.43
2023-02-11T21:46:18.005Z,9.63
2023-02-11T21:48:44.811Z,9.77
2023-02-11T21:51:14.206Z,10.80
2023-02-11T21:53:40.911Z,10.57
2023-02-11T21:56:13.188Z,10.23
2023-02-11T21:58:40.045Z,9.50
2023-02-11T22:01:30.902Z,11.43
2023-02-11T22:03:57.985Z,9.33
2023-02-11T22:06:27.307Z,10.30
2023-02-11T22:08:54.733Z,10.27
2023-02-11T22:11:21.434Z,10.63
2023-02-11T22:13:48.182Z,11.37
2023-02-11T22:16:16.659Z,10.73
2023-02-11T22:18:46.970Z,11.37
2023-02-11T22:21:16.346Z,11.13
2023-02-11T22:23:43.400Z,11.63
2023-02-11T22:26:16.845Z,11.57
2023-02-11T22:28:47.361Z,11.73
2023-02-11T22:31:22.576Z,11.40
2023-02-11T22:33:52.223Z,12.93
2023-02-11T22:36:27.371Z,12.17
2023-02-11T22:38:56.870Z,13.10
2023-02-11T22:41:25.891Z,12.17
2023-02-11T22:43:55.903Z,12.13
2023-02-11T22:46:23.629Z,12.60
2023-02-11T22:48:50.627Z,11.70
2023-02-11T22:51:20.616Z,11.97
2023-02-11T22:53:58.609Z,12.63
2023-02-11T22:56:26.007Z,12.47
2023-02-11T22:58:56.136Z,11.83
2023-02-11T23:01:22.817Z,12.27
2023-02-11T23:03:49.533Z,13.00
2023-02-11T23:06:16.332Z,12.47
2023-02-11T23:08:43.345Z,12.67
2023-02-11T23:11:16.409Z,12.13
2023-02-11T23:13:44.510Z,11.63
2023-02-11T23:16:14.411Z,14.53
2023-02-11T23:18:42.758Z,13.67
2023-02-11T23:21:12.803Z,13.23
2023-02-11T23:23:39.992Z,14.17
2023-02-11T23:26:13.229Z,13.13
2023-02-11T23:28:40.565Z,13.70
2023-02-11T23:31:28.465Z,13.20
2023-02-11T23:33:55.322Z,13.53
2023-02-11T23:36:22.591Z,11.50
2023-02-11T23:38:49.517Z,12.20
2023-02-11T23:41:16.464Z,14.17
2023-02-11T23:43:43.742Z,12.00
2023-02-11T23:46:12.070Z,12.43
2023-02-11T23:48:40.387Z,13.57
2023-02-11T23:51:09.564Z,14.10
2023-02-11T23:53:37.399Z,11.97
2023-02-11T23:56:13.250Z,12.10
2023-02-11T23:58:39.957Z,12.70
